createdAt,value
2018-11-13T00:01:59.824Z,93.80
2018-11-13T00:04:27.391Z,94.10
2018-11-13T00:06:55.911Z,93.70
2018-11-13T00:09:23.474Z,93.70
2018-11-13T00:11:51.042Z,93.70
2018-11-13T00:14:19.098Z,93.80
2018-11-13T00:16:46.659Z,93.70
2018-11-13T00:19:14.258Z,93.40
2018-11-13T00:21:41.820Z,93.40
2018-11-13T00:24:09.760Z,93.40
2018-11-13T00:26:38.135Z,93.70
2018-11-13T00:29:05.706Z,93.50
2018-11-13T00:31:33.269Z,93.60
2018-11-13T00:34:00.876Z,93.80
2018-11-13T00:36:28.436Z,93.90
2018-11-13T00:38:55.994Z,94.10
2018-11-13T00:41:24.366Z,93.80
2018-11-13T00:43:52.694Z,93.80
2018-11-13T00:46:20.572Z,93.80
2018-11-13T00:48:48.169Z,94.00
2018-11-13T00:51:16.496Z,94.10
2018-11-13T00:53:44.052Z,94.10
2018-11-13T00:56:11.643Z,94.20
2018-11-13T00:58:39.198Z,94.30
2018-11-13T01:01:06.794Z,94.40
2018-11-13T01:03:35.121Z,94.80
2018-11-13T01:06:03.103Z,94.80
2018-11-13T01:08:30.657Z,94.90
2018-11-13T01:10:58.216Z,95.10
2018-11-13T01:13:25.805Z,95.20
2018-11-13T01:15:53.373Z,95.30
2018-11-13T01:18:20.935Z,95.40
2018-11-13T01:20:48.529Z,95.70
2018-11-13T01:23:16.123Z,95.30
2018-11-13T01:25:43.768Z,94.90
2018-11-13T01:28:11.352Z,94.80
2018-11-13T01:30:38.940Z,94.80
2018-11-13T01:33:06.553Z,94.80
2018-11-13T01:35:34.139Z,94.80
2018-11-13T01:38:01.761Z,94.70
2018-11-13T01:40:30.104Z,94.80
2018-11-13T01:42:57.683Z,94.70
2018-11-13T01:45:25.325Z,94.70
2018-11-13T01:47:52.959Z,94.70
2018-11-13T01:50:21.260Z,94.70
2018-11-13T01:52:48.883Z,94.70
2018-11-13T01:55:16.461Z,94.70
2018-11-13T01:57:44.081Z,94.90
2018-11-13T02:00:12.437Z,94.70
2018-11-13T02:02:40.019Z,94.40
2018-11-13T02:05:08.402Z,94.60
2018-11-13T02:07:36.754Z,94.10
2018-11-13T02:10:04.646Z,94.10
2018-11-13T02:12:32.225Z,94.10
2018-11-13T02:15:00.570Z,94.00
2018-11-13T02:17:28.179Z,94.00
2018-11-13T02:19:55.760Z,94.10
2018-11-13T02:22:23.374Z,94.10
2018-11-13T02:24:51.729Z,94.30
2018-11-13T02:27:19.311Z,94.30
2018-11-13T02:29:46.920Z,94.30
2018-11-13T02:32:14.501Z,94.40
2018-11-13T02:34:42.575Z,94.40
2018-11-13T02:37:10.161Z,94.50
2018-11-13T02:39:37.761Z,94.50
2018-11-13T02:42:06.127Z,94.80
2018-11-13T02:44:34.479Z,94.80
2018-11-13T02:47:02.101Z,94.80
2018-11-13T02:49:29.704Z,95.00
2018-11-13T02:51:57.417Z,94.50
2018-11-13T02:54:25.019Z,94.10
2018-11-13T02:56:52.600Z,94.10
2018-11-13T02:59:20.565Z,94.10
2018-11-13T03:01:48.151Z,94.10
2018-11-13T03:04:15.753Z,94.10
2018-11-13T03:06:43.379Z,94.40
2018-11-13T03:09:11.729Z,93.90
2018-11-13T03:11:39.317Z,93.80
2018-11-13T03:14:07.704Z,93.80
2018-11-13T03:16:35.283Z,93.70
2018-11-13T03:19:02.872Z,93.70
2018-11-13T03:21:30.480Z,93.40
2018-11-13T03:23:58.823Z,93.40
2018-11-13T03:26:26.894Z,93.40
2018-11-13T03:28:54.487Z,93.40
2018-11-13T03:31:22.935Z,93.30
2018-11-13T03:33:50.450Z,93.10
2018-11-13T03:36:18.031Z,92.90
2018-11-13T03:38:45.644Z,92.90
2018-11-13T03:41:13.222Z,93.00
2018-11-13T03:43:41.570Z,93.40
2018-11-13T03:46:09.174Z,93.40
2018-11-13T03:48:36.750Z,93.50
2018-11-13T03:51:04.393Z,93.70
2018-11-13T03:53:32.741Z,93.50
2018-11-13T03:56:00.320Z,93.50
2018-11-13T03:58:28.689Z,93.80
2018-11-13T04:00:56.266Z,93.80
2018-11-13T04:03:24.648Z,93.50
2018-11-13T04:05:52.997Z,93.60
2018-11-13T04:08:20.850Z,93.60
2018-11-13T04:10:48.462Z,93.60
2018-11-13T04:13:16.809Z,93.70
2018-11-13T04:15:44.421Z,93.70
2018-11-13T04:18:11.999Z,93.70
2018-11-13T04:20:39.584Z,93.80
2018-11-13T04:23:07.191Z,93.80
2018-11-13T04:25:35.543Z,93.80
2018-11-13T04:28:03.114Z,93.80
2018-11-13T04:30:30.749Z,93.70
2018-11-13T04:32:58.308Z,93.90
2018-11-13T04:35:25.891Z,93.50
2018-11-13T04:37:53.527Z,93.50
2018-11-13T04:40:21.398Z,93.50
2018-11-13T04:42:48.978Z,93.30
2018-11-13T04:45:16.596Z,93.00
2018-11-13T04:47:44.175Z,93.00
2018-11-13T04:50:11.755Z,93.00
2018-11-13T04:52:39.376Z,93.10
2018-11-13T04:55:06.961Z,93.10
2018-11-13T04:57:34.536Z,93.20
2018-11-13T05:00:02.169Z,93.30
2018-11-13T05:02:29.762Z,93.40
2018-11-13T05:04:57.332Z,93.50
2018-11-13T05:07:24.949Z,93.00
2018-11-13T05:09:52.531Z,92.70
2018-11-13T05:12:20.114Z,92.80
2018-11-13T05:14:47.708Z,93.20
2018-11-13T05:17:16.061Z,93.00
2018-11-13T05:19:43.686Z,93.00
2018-11-13T05:22:12.266Z,93.00
2018-11-13T05:24:39.840Z,93.30
2018-11-13T05:27:07.467Z,92.90
2018-11-13T05:29:35.870Z,92.90
2018-11-13T05:32:03.447Z,92.90
2018-11-13T05:34:31.543Z,92.90
2018-11-13T05:36:59.122Z,92.90
2018-11-13T05:39:26.705Z,92.90
2018-11-13T05:41:54.524Z,92.90
2018-11-13T05:44:21.998Z,93.00
2018-11-13T05:46:49.580Z,93.00
2018-11-13T05:49:17.946Z,93.40
2018-11-13T05:51:45.524Z,93.40
2018-11-13T05:54:14.191Z,93.00
2018-11-13T05:56:41.824Z,93.00
2018-11-13T05:59:11.909Z,93.10
2018-11-13T06:01:36.955Z,93.20
2018-11-13T06:04:04.532Z,93.30
2018-11-13T06:06:32.916Z,92.60
2018-11-13T06:09:00.495Z,92.70
2018-11-13T06:11:28.843Z,92.90
2018-11-13T06:13:56.498Z,92.90
2018-11-13T06:16:24.794Z,93.00
2018-11-13T06:18:52.471Z,93.00
2018-11-13T06:21:20.055Z,93.10
2018-11-13T06:23:47.634Z,92.70
2018-11-13T06:26:15.294Z,92.40
2018-11-13T06:28:42.872Z,92.40
2018-11-13T06:31:10.447Z,92.40
2018-11-13T06:33:38.049Z,92.60
2018-11-13T06:36:06.397Z,92.70
2018-11-13T06:38:34.628Z,92.70
2018-11-13T06:41:02.196Z,92.80
2018-11-13T06:43:29.781Z,92.90
2018-11-13T06:45:57.411Z,92.90
2018-11-13T06:48:25.755Z,93.10
2018-11-13T06:50:53.336Z,93.10
2018-11-13T06:53:21.704Z,93.30
2018-11-13T06:55:49.278Z,93.30
2018-11-13T06:58:16.903Z,93.00
2018-11-13T07:00:44.481Z,93.00
2018-11-13T07:03:12.062Z,93.10
2018-11-13T07:05:39.709Z,93.10
2018-11-13T07:08:07.286Z,93.20
2018-11-13T07:10:35.662Z,93.40
2018-11-13T07:13:04.145Z,93.30
2018-11-13T07:15:32.079Z,93.30
2018-11-13T07:17:59.651Z,93.40
2018-11-13T07:20:28.151Z,93.50
2018-11-13T07:22:55.719Z,93.50
2018-11-13T07:25:24.399Z,93.50
2018-11-13T07:27:52.717Z,93.60
2018-11-13T07:30:20.281Z,93.50
2018-11-13T07:32:47.928Z,93.50
2018-11-13T07:35:16.274Z,93.70
2018-11-13T07:37:43.852Z,93.70
2018-11-13T07:40:12.254Z,93.70
2018-11-13T07:42:39.866Z,93.70
2018-11-13T07:45:07.424Z,93.30
2018-11-13T07:47:35.141Z,93.40
2018-11-13T07:50:02.663Z,93.30
2018-11-13T07:52:30.243Z,93.50
2018-11-13T07:54:58.673Z,93.10
2018-11-13T07:57:26.251Z,93.10
2018-11-13T07:59:53.832Z,93.10
2018-11-13T08:02:21.487Z,93.10
2018-11-13T08:04:49.067Z,93.30
2018-11-13T08:07:16.694Z,92.90
2018-11-13T08:09:45.069Z,92.30
2018-11-13T08:12:12.648Z,92.30
2018-11-13T08:14:40.229Z,92.30
2018-11-13T08:17:07.910Z,92.30
2018-11-13T08:19:36.251Z,92.20
2018-11-13T08:22:03.833Z,92.20
2018-11-13T08:24:31.438Z,92.10
2018-11-13T08:26:59.094Z,92.10
2018-11-13T08:29:26.682Z,91.90
2018-11-13T08:31:54.986Z,92.00
2018-11-13T08:34:22.612Z,92.00
2018-11-13T08:36:50.194Z,92.40
2018-11-13T08:39:17.771Z,92.00
2018-11-13T08:41:45.380Z,91.90
2018-11-13T08:44:13.120Z,91.60
2018-11-13T08:46:40.605Z,91.60
2018-11-13T08:49:08.187Z,91.70
2018-11-13T08:51:35.789Z,91.70
2018-11-13T08:54:03.862Z,91.60
2018-11-13T08:56:31.445Z,91.40
2018-11-13T08:58:59.852Z,90.90
2018-11-13T09:01:27.670Z,90.90
2018-11-13T09:03:55.255Z,90.90
2018-11-13T09:06:23.595Z,90.90
2018-11-13T09:08:51.226Z,90.80
2018-11-13T09:11:18.902Z,90.80
2018-11-13T09:13:46.399Z,90.50
2018-11-13T09:16:14.025Z,90.30
2018-11-13T09:18:41.649Z,90.10
2018-11-13T09:21:09.190Z,89.20
2018-11-13T09:23:36.860Z,88.90
2018-11-13T09:26:04.465Z,89.20
2018-11-13T09:28:32.774Z,87.50
2018-11-13T09:31:00.574Z,87.50
2018-11-13T09:33:28.026Z,87.90
2018-11-13T09:35:55.589Z,88.20
2018-11-13T09:38:23.518Z,88.10
2018-11-13T09:40:51.112Z,87.90
2018-11-13T09:43:19.175Z,88.30
2018-11-13T09:45:46.808Z,88.80
2018-11-13T09:48:15.108Z,89.00
2018-11-13T09:50:42.755Z,89.00
2018-11-13T09:53:10.354Z,88.20
2018-11-13T09:55:37.897Z,88.10
2018-11-13T09:58:05.625Z,88.10
2018-11-13T10:00:33.435Z,88.10
2018-11-13T10:03:01.451Z,88.00
2018-11-13T10:05:28.604Z,87.90
2018-11-13T10:07:56.019Z,88.10
2018-11-13T10:10:23.656Z,88.20
2018-11-13T10:12:52.009Z,88.30
2018-11-13T10:15:19.595Z,88.10
2018-11-13T10:17:47.243Z,88.30
2018-11-13T10:20:14.776Z,87.50
2018-11-13T10:22:43.150Z,87.00
2018-11-13T10:25:10.726Z,86.90
2018-11-13T10:27:38.398Z,86.80
2018-11-13T10:30:05.947Z,86.90
2018-11-13T10:32:34.287Z,86.90
2018-11-13T10:35:03.346Z,86.80
2018-11-13T10:37:30.927Z,86.60
2018-11-13T10:39:58.548Z,86.70
2018-11-13T10:42:26.154Z,86.50
2018-11-13T10:44:53.728Z,86.30
2018-11-13T10:47:21.308Z,86.50
2018-11-13T10:49:49.980Z,86.20
2018-11-13T10:52:17.556Z,86.10
2018-11-13T10:54:45.132Z,86.10
2018-11-13T10:57:14.487Z,85.90
2018-11-13T10:59:42.075Z,85.80
2018-11-13T11:02:09.692Z,85.40
2018-11-13T11:04:38.026Z,85.50
2018-11-13T11:07:06.379Z,85.00
2018-11-13T11:09:34.029Z,84.90
2018-11-13T11:12:01.607Z,84.80
2018-11-13T11:14:29.190Z,84.50
2018-11-13T11:16:56.837Z,84.40
2018-11-13T11:19:24.498Z,84.20
2018-11-13T11:21:52.791Z,84.10
2018-11-13T11:24:20.417Z,84.00
2018-11-13T11:26:48.490Z,83.20
2018-11-13T11:29:17.616Z,83.50
2018-11-13T11:31:45.202Z,83.60
2018-11-13T11:34:13.541Z,83.60
2018-11-13T11:36:41.530Z,83.50
2018-11-13T11:39:09.156Z,83.00
2018-11-13T11:41:36.683Z,82.90
2018-11-13T11:44:05.116Z,81.50
2018-11-13T11:46:32.700Z,81.50
2018-11-13T11:49:00.282Z,81.40
2018-11-13T11:51:29.259Z,80.40
2018-11-13T11:53:57.230Z,80.30
2018-11-13T11:56:24.771Z,80.60
2018-11-13T11:58:52.400Z,79.70
2018-11-13T12:01:19.975Z,79.30
2018-11-13T12:03:47.555Z,79.40
2018-11-13T12:06:15.179Z,79.00
2018-11-13T12:08:43.069Z,79.00
2018-11-13T12:11:10.651Z,78.90
2018-11-13T12:13:39.345Z,78.00
2018-11-13T12:16:07.035Z,78.80
2018-11-13T12:18:35.383Z,76.80
2018-11-13T12:21:04.051Z,76.80
2018-11-13T12:23:31.918Z,76.20
2018-11-13T12:25:59.562Z,75.80
2018-11-13T12:28:28.398Z,75.80
2018-11-13T12:30:55.991Z,75.00
2018-11-13T12:33:24.335Z,71.80
2018-11-13T12:35:51.968Z,71.80
2018-11-13T12:38:19.541Z,71.80
2018-11-13T12:40:47.229Z,70.90
2018-11-13T12:43:14.747Z,70.50
2018-11-13T12:45:42.325Z,70.60
2018-11-13T12:48:09.964Z,70.80
2018-11-13T12:50:37.547Z,70.80
2018-11-13T12:53:05.130Z,70.90
2018-11-13T12:55:32.819Z,71.10
2018-11-13T12:58:00.341Z,71.40
2018-11-13T13:00:27.916Z,70.40
2018-11-13T13:02:55.549Z,70.40
2018-11-13T13:05:23.134Z,69.60
2018-11-13T13:07:50.723Z,68.30
2018-11-13T13:10:18.329Z,68.80
2018-11-13T13:12:45.910Z,69.60
2018-11-13T13:15:14.620Z,70.00
2018-11-13T13:17:42.205Z,70.30
2018-11-13T13:20:09.790Z,70.30
2018-11-13T13:22:37.415Z,70.40
2018-11-13T13:25:05.134Z,69.70
2018-11-13T13:27:32.592Z,69.50
2018-11-13T13:30:00.321Z,69.90
2018-11-13T13:32:28.665Z,70.30
2018-11-13T13:34:56.513Z,70.20
2018-11-13T13:37:24.482Z,70.20
2018-11-13T13:39:52.158Z,70.20
2018-11-13T13:42:19.797Z,70.00
2018-11-13T13:44:47.378Z,70.10
2018-11-13T13:47:14.964Z,70.30
2018-11-13T13:49:42.594Z,70.80
2018-11-13T13:52:10.208Z,70.30
2018-11-13T13:54:38.554Z,70.30
2018-11-13T13:57:06.180Z,70.10
2018-11-13T13:59:33.809Z,70.10
2018-11-13T14:02:01.380Z,70.40
2018-11-13T14:04:30.624Z,70.80
2018-11-13T14:06:58.210Z,70.70
2018-11-13T14:09:25.808Z,70.60
2018-11-13T14:11:53.439Z,70.40
2018-11-13T14:14:21.019Z,70.70
2018-11-13T14:16:49.413Z,71.20
2018-11-13T14:19:17.426Z,71.20
2018-11-13T14:21:45.001Z,71.20
2018-11-13T14:24:12.579Z,71.50
2018-11-13T14:26:40.254Z,71.90
2018-11-13T14:29:07.887Z,72.20
2018-11-13T14:31:36.164Z,73.10
2018-11-13T14:34:03.804Z,72.20
2018-11-13T14:36:31.379Z,72.40
2018-11-13T14:38:58.971Z,72.40
2018-11-13T14:41:26.610Z,72.30
2018-11-13T14:43:54.187Z,72.20
2018-11-13T14:46:21.828Z,72.30
2018-11-13T14:48:50.536Z,72.40
2018-11-13T14:51:18.121Z,72.40
2018-11-13T14:53:46.468Z,72.00
2018-11-13T14:56:14.095Z,72.00
2018-11-13T14:58:41.685Z,71.50
2018-11-13T15:01:09.270Z,71.20
2018-11-13T15:03:36.895Z,70.80
2018-11-13T15:06:04.474Z,70.90
2018-11-13T15:08:32.059Z,71.00
2018-11-13T15:10:59.700Z,71.20
2018-11-13T15:13:27.330Z,71.40
2018-11-13T15:15:54.917Z,71.30
2018-11-13T15:18:22.538Z,71.50
2018-11-13T15:20:50.126Z,71.50
2018-11-13T15:23:17.708Z,71.70
2018-11-13T15:25:45.666Z,72.10
2018-11-13T15:28:13.253Z,72.30
2018-11-13T15:30:40.851Z,72.50
2018-11-13T15:33:09.238Z,72.30
2018-11-13T15:35:36.822Z,72.20
2018-11-13T15:38:04.406Z,71.90
2018-11-13T15:40:32.036Z,72.00
2018-11-13T15:42:59.612Z,72.20
2018-11-13T15:45:27.192Z,72.70
2018-11-13T15:47:54.827Z,73.10
2018-11-13T15:50:22.415Z,73.40
2018-11-13T15:52:49.998Z,73.80
2018-11-13T15:55:17.934Z,73.50
2018-11-13T15:57:45.556Z,73.80
2018-11-13T16:00:13.098Z,74.00
2018-11-13T16:02:41.098Z,74.40
2018-11-13T16:05:08.645Z,74.90
2018-11-13T16:07:36.989Z,74.70
2018-11-13T16:10:04.667Z,74.60
2018-11-13T16:12:32.275Z,74.90
2018-11-13T16:14:59.844Z,75.50
2018-11-13T16:17:28.208Z,75.60
2018-11-13T16:19:55.930Z,75.60
2018-11-13T16:22:23.494Z,75.20
2018-11-13T16:24:52.663Z,75.50
2018-11-13T16:27:20.245Z,75.90
2018-11-13T16:29:47.871Z,76.30
2018-11-13T16:32:15.453Z,76.60
2018-11-13T16:34:43.039Z,76.70
2018-11-13T16:37:10.620Z,76.50
2018-11-13T16:39:39.368Z,77.00
2018-11-13T16:42:07.018Z,76.90
2018-11-13T16:44:35.150Z,77.20
2018-11-13T16:47:03.498Z,77.20
2018-11-13T16:49:31.128Z,77.20
2018-11-13T16:51:59.182Z,78.10
2018-11-13T16:54:26.782Z,77.60
2018-11-13T16:56:54.426Z,77.80
2018-11-13T16:59:22.039Z,78.20
2018-11-13T17:01:49.585Z,78.30
2018-11-13T17:04:17.176Z,78.60
2018-11-13T17:06:45.744Z,79.30
2018-11-13T17:09:13.157Z,79.20
2018-11-13T17:11:40.805Z,79.50
2018-11-13T17:14:08.404Z,79.90
2018-11-13T17:16:35.965Z,80.00
2018-11-13T17:19:03.560Z,80.50
2018-11-13T17:21:31.955Z,80.10
2018-11-13T17:23:59.570Z,80.10
2018-11-13T17:26:27.177Z,80.20
2018-11-13T17:28:55.704Z,80.50
2018-11-13T17:31:23.316Z,80.60
2018-11-13T17:33:50.873Z,81.00
2018-11-13T17:36:19.786Z,80.90
2018-11-13T17:38:47.372Z,80.80
2018-11-13T17:41:14.951Z,81.00
2018-11-13T17:43:42.584Z,81.20
2018-11-13T17:46:10.180Z,81.60
2018-11-13T17:48:37.766Z,81.80
2018-11-13T17:51:06.166Z,82.20
2018-11-13T17:53:33.800Z,81.40
2018-11-13T17:56:01.336Z,81.80
2018-11-13T17:58:28.981Z,82.00
2018-11-13T18:00:56.563Z,82.20
2018-11-13T18:03:24.151Z,82.70
2018-11-13T18:05:51.781Z,82.00
2018-11-13T18:08:19.361Z,81.40
2018-11-13T18:10:46.943Z,81.60
2018-11-13T18:13:16.036Z,83.20
2018-11-13T18:15:43.616Z,83.20
2018-11-13T18:18:11.208Z,83.70
2018-11-13T18:20:38.826Z,84.10
2018-11-13T18:23:06.403Z,84.50
2018-11-13T18:25:34.751Z,85.10
2018-11-13T18:28:02.762Z,85.00
2018-11-13T18:30:30.304Z,85.20
2018-11-13T18:32:58.331Z,85.70
2018-11-13T18:35:25.955Z,86.00
2018-11-13T18:37:53.619Z,86.90
2018-11-13T18:40:21.121Z,86.10
2018-11-13T18:42:49.546Z,86.20
2018-11-13T18:45:17.888Z,86.40
2018-11-13T18:47:45.463Z,86.40
2018-11-13T18:50:13.516Z,87.10
2018-11-13T18:52:41.343Z,87.50
2018-11-13T18:55:08.922Z,87.80
2018-11-13T18:57:36.555Z,88.20
2018-11-13T19:00:04.900Z,88.40
2018-11-13T19:02:32.479Z,88.30
2018-11-13T19:05:01.182Z,88.30
2018-11-13T19:07:28.747Z,88.30
2018-11-13T19:09:56.329Z,88.30
2018-11-13T19:12:24.019Z,88.20
2018-11-13T19:14:52.346Z,88.70
2018-11-13T19:17:19.940Z,88.70
2018-11-13T19:19:48.324Z,88.70
2018-11-13T19:22:16.102Z,88.60
2018-11-13T19:24:43.809Z,88.00
2018-11-13T19:27:11.395Z,87.90
2018-11-13T19:29:39.043Z,87.60
2018-11-13T19:32:06.637Z,87.60
2018-11-13T19:34:34.222Z,87.60
2018-11-13T19:37:01.864Z,88.10
2018-11-13T19:39:30.694Z,88.40
2018-11-13T19:41:58.284Z,88.70
2018-11-13T19:44:26.685Z,88.50
2018-11-13T19:46:54.240Z,88.40
2018-11-13T19:49:22.246Z,87.70
2018-11-13T19:51:49.477Z,87.30
2018-11-13T19:54:17.052Z,86.80
2018-11-13T19:56:44.642Z,87.00
2018-11-13T19:59:12.829Z,87.20
2018-11-13T20:01:40.403Z,87.50
2018-11-13T20:04:08.814Z,87.80
2018-11-13T20:06:36.848Z,87.80
2018-11-13T20:09:04.524Z,88.20
2018-11-13T20:11:32.233Z,88.40
2018-11-13T20:13:59.826Z,89.30
2018-11-13T20:16:27.484Z,88.70
2018-11-13T20:18:55.068Z,88.70
2018-11-13T20:21:22.644Z,88.60
2018-11-13T20:23:51.378Z,88.90
2018-11-13T20:26:19.014Z,88.90
2018-11-13T20:28:46.596Z,89.00
2018-11-13T20:31:14.213Z,89.10
2018-11-13T20:33:42.166Z,89.20
2018-11-13T20:36:09.743Z,89.20
2018-11-13T20:38:37.357Z,89.30
2018-11-13T20:41:06.180Z,89.50
2018-11-13T20:43:33.802Z,89.70
2018-11-13T20:46:01.361Z,90.40
2018-11-13T20:48:28.985Z,90.10
2018-11-13T20:50:56.570Z,90.10
2018-11-13T20:53:24.171Z,90.10
2018-11-13T20:55:52.254Z,90.10
2018-11-13T20:58:19.845Z,90.10
2018-11-13T21:00:47.429Z,90.10
2018-11-13T21:03:15.055Z,90.10
2018-11-13T21:05:42.675Z,90.10
2018-11-13T21:08:10.227Z,90.00
2018-11-13T21:10:37.900Z,90.00
2018-11-13T21:13:06.210Z,90.10
2018-11-13T21:15:33.789Z,90.10
2018-11-13T21:18:02.887Z,90.20
2018-11-13T21:20:31.232Z,90.20
2018-11-13T21:22:58.823Z,90.20
2018-11-13T21:25:27.215Z,90.70
2018-11-13T21:27:55.561Z,90.20
2018-11-13T21:30:23.218Z,90.10
2018-11-13T21:32:50.772Z,90.10
2018-11-13T21:35:18.346Z,90.10
2018-11-13T21:37:45.994Z,90.00
2018-11-13T21:40:13.551Z,90.10
2018-11-13T21:42:41.135Z,90.10
2018-11-13T21:45:08.747Z,90.10
2018-11-13T21:47:36.982Z,90.20
2018-11-13T21:50:04.613Z,90.20
2018-11-13T21:52:32.136Z,90.20
2018-11-13T21:54:59.758Z,90.30
2018-11-13T21:57:27.334Z,90.30
2018-11-13T21:59:54.910Z,90.30
2018-11-13T22:02:23.280Z,90.50
2018-11-13T22:04:51.656Z,90.50
2018-11-13T22:07:19.514Z,90.50
2018-11-13T22:09:47.108Z,90.80
2018-11-13T22:12:14.687Z,90.50
2018-11-13T22:14:42.330Z,90.40
2018-11-13T22:17:10.685Z,90.40
2018-11-13T22:19:38.291Z,90.40
2018-11-13T22:22:06.719Z,90.50
2018-11-13T22:24:34.258Z,90.40
2018-11-13T22:27:01.882Z,90.50
2018-11-13T22:29:30.447Z,90.50
2018-11-13T22:31:58.802Z,90.80
2018-11-13T22:34:26.392Z,90.80
2018-11-13T22:36:54.011Z,90.80
2018-11-13T22:39:21.832Z,90.80
2018-11-13T22:41:50.166Z,90.90
2018-11-13T22:44:17.891Z,90.90
2018-11-13T22:46:45.436Z,91.10
2018-11-13T22:49:13.788Z,91.60
2018-11-13T22:51:41.414Z,91.60
2018-11-13T22:54:09.290Z,91.80
2018-11-13T22:56:36.887Z,92.00
2018-11-13T22:59:05.327Z,92.30
2018-11-13T23:01:32.917Z,92.60
2018-11-13T23:04:00.616Z,92.80
2018-11-13T23:06:28.276Z,92.90
2018-11-13T23:08:55.868Z,93.00
2018-11-13T23:11:23.462Z,93.10
2018-11-13T23:13:51.066Z,93.10
2018-11-13T23:16:18.644Z,93.20
2018-11-13T23:18:46.229Z,93.30
2018-11-13T23:21:13.834Z,93.40
2018-11-13T23:23:42.186Z,93.50
2018-11-13T23:26:09.861Z,93.40
2018-11-13T23:28:37.463Z,93.50
2018-11-13T23:31:05.050Z,93.90
2018-11-13T23:33:32.664Z,93.70
2018-11-13T23:36:01.080Z,93.20
2018-11-13T23:38:28.971Z,93.20
2018-11-13T23:40:56.552Z,93.30
2018-11-13T23:43:24.135Z,93.30
2018-11-13T23:45:51.746Z,93.50
2018-11-13T23:48:19.328Z,93.50
2018-11-13T23:50:47.346Z,93.50
2018-11-13T23:53:15.695Z,93.70
2018-11-13T23:55:43.360Z,93.60
2018-11-13T23:58:10.976Z,93.70
